createdAt,value
2022-12-04T00:00:49.898Z,22.80
2022-12-04T00:05:52.672Z,22.10
2022-12-04T00:10:57.880Z,23.23
2022-12-04T00:16:01.096Z,21.20
2022-12-04T00:21:05.807Z,21.33
2022-12-04T00:26:12.406Z,21.50
2022-12-04T00:31:18.041Z,22.10
2022-12-04T00:36:22.985Z,20.98
2022-12-04T00:41:29.116Z,19.17
2022-12-04T00:46:32.412Z,20.05
2022-12-04T00:51:35.252Z,19.83
2022-12-04T00:56:40.246Z,20.17
2022-12-04T01:01:43.053Z,18.55
2022-12-04T01:06:47.681Z,17.67
2022-12-04T01:11:51.849Z,19.00
2022-12-04T01:16:54.653Z,18.30
2022-12-04T01:21:57.439Z,18.33
2022-12-04T01:27:01.585Z,18.95
2022-12-04T01:32:04.715Z,17.67
2022-12-04T01:37:07.652Z,19.15
2022-12-04T01:42:15.348Z,17.75
2022-12-04T01:47:18.074Z,18.23
2022-12-04T01:52:24.644Z,19.45
2022-12-04T01:57:32.455Z,18.92
2022-12-04T02:02:37.085Z,18.60
2022-12-04T02:07:41.133Z,20.35
2022-12-04T02:12:53.650Z,17.92
2022-12-04T02:18:03.868Z,18.83
2022-12-04T02:23:30.490Z,18.90
2022-12-04T02:28:39.660Z,18.25
2022-12-04T02:33:46.741Z,20.40
2022-12-04T02:38:56.324Z,18.77
2022-12-04T02:44:08.426Z,19.27
2022-12-04T02:49:17.079Z,18.92
2022-12-04T02:54:26.082Z,19.35
2022-12-04T02:59:34.849Z,18.85
2022-12-04T03:04:40.560Z,18.92
2022-12-04T03:09:46.348Z,18.83
2022-12-04T03:14:55.123Z,17.08
2022-12-04T03:20:03.523Z,19.17
2022-12-04T03:30:15.253Z,19.35
2022-12-04T03:40:27.053Z,17.60
2022-12-04T03:45:40.803Z,18.13
2022-12-04T03:50:51.293Z,19.80
2022-12-04T03:56:03.057Z,19.20
2022-12-04T04:01:10.938Z,18.33
2022-12-04T04:06:18.542Z,19.02
2022-12-04T04:11:28.184Z,18.40
2022-12-04T04:16:54.016Z,18.40
2022-12-04T04:22:16.521Z,19.52
2022-12-04T04:27:19.302Z,18.33
2022-12-04T04:32:32.093Z,20.60
2022-12-04T04:37:41.836Z,18.50
2022-12-04T04:42:49.742Z,16.55
2022-12-04T04:47:59.535Z,19.52
2022-12-04T04:53:06.088Z,19.00
2022-12-04T04:58:09.804Z,18.00
2022-12-04T05:03:13.997Z,19.30
2022-12-04T05:08:16.869Z,19.83
2022-12-04T05:13:20.456Z,19.80
2022-12-04T05:18:24.604Z,18.65
2022-12-04T05:23:27.409Z,18.00
2022-12-04T05:28:30.292Z,18.13
2022-12-04T05:33:34.427Z,18.17
2022-12-04T05:38:38.344Z,19.33
2022-12-04T05:43:41.052Z,19.25
2022-12-04T05:48:45.182Z,18.85
2022-12-04T05:53:48.000Z,19.48
2022-12-04T05:58:50.918Z,18.42
2022-12-04T06:03:57.459Z,18.90
2022-12-04T06:09:01.541Z,18.95
2022-12-04T06:14:06.693Z,19.40
2022-12-04T06:19:14.544Z,19.42
2022-12-04T06:24:21.304Z,19.00
2022-12-04T06:29:25.542Z,18.10
2022-12-04T06:34:29.921Z,20.10
2022-12-04T06:39:32.886Z,21.02
2022-12-04T06:44:35.733Z,19.83
2022-12-04T06:49:40.239Z,21.35
2022-12-04T06:54:45.156Z,21.25
2022-12-04T06:59:48.293Z,19.08
2022-12-04T07:04:56.224Z,19.65
2022-12-04T07:09:59.068Z,20.65
2022-12-04T07:15:02.001Z,21.88
2022-12-04T07:20:12.973Z,19.98
2022-12-04T07:25:16.004Z,21.95
2022-12-04T07:30:18.997Z,21.42
2022-12-04T07:35:24.225Z,20.88
2022-12-04T07:40:27.028Z,20.83
2022-12-04T07:45:30.889Z,20.90
2022-12-04T07:50:36.283Z,20.48
2022-12-04T07:55:40.378Z,20.55
2022-12-04T08:00:43.683Z,21.27
2022-12-04T08:05:47.984Z,21.40
2022-12-04T08:10:50.773Z,21.73
2022-12-04T08:15:53.754Z,21.00
2022-12-04T08:21:04.222Z,21.58
2022-12-04T08:26:08.112Z,21.85
2022-12-04T08:31:14.339Z,21.83
2022-12-04T08:36:20.272Z,22.63
2022-12-04T08:41:25.983Z,20.10
2022-12-04T08:46:29.272Z,21.95
2022-12-04T08:51:35.745Z,20.95
2022-12-04T08:56:38.888Z,22.85
2022-12-04T09:01:41.683Z,22.00
2022-12-04T09:06:45.894Z,21.92
2022-12-04T09:11:50.676Z,22.13
2022-12-04T09:16:53.780Z,21.50
2022-12-04T09:21:57.973Z,19.02
2022-12-04T09:27:12.925Z,21.60
2022-12-04T09:32:17.466Z,21.20
2022-12-04T09:37:21.552Z,21.40
2022-12-04T09:42:38.517Z,22.25
2022-12-04T09:47:45.449Z,19.15
2022-12-04T09:53:00.390Z,20.30
2022-12-04T09:58:07.164Z,22.90
2022-12-04T10:03:15.699Z,21.85
2022-12-04T10:08:23.844Z,20.38
2022-12-04T10:18:49.275Z,19.52
2022-12-04T10:24:02.389Z,19.45
2022-12-04T10:29:08.932Z,18.30
2022-12-04T10:34:17.602Z,19.00
2022-12-04T10:39:26.648Z,18.52
2022-12-04T10:44:29.476Z,18.13
2022-12-04T10:49:34.134Z,18.48
2022-12-04T10:54:44.403Z,18.00
2022-12-04T10:59:52.474Z,16.80
2022-12-04T11:04:58.006Z,16.58
2022-12-04T11:10:05.288Z,18.08
2022-12-04T11:15:16.108Z,18.15
2022-12-04T11:20:21.824Z,19.95
2022-12-04T11:25:28.220Z,19.45
2022-12-04T11:30:35.368Z,18.13
2022-12-04T11:35:38.238Z,20.10
2022-12-04T11:40:48.255Z,18.98
2022-12-04T11:45:58.876Z,18.70
2022-12-04T11:51:10.173Z,18.70
2022-12-04T11:56:21.689Z,18.38
2022-12-04T12:01:37.514Z,18.10
2022-12-04T12:06:49.537Z,18.83
2022-12-04T12:12:02.571Z,19.45
2022-12-04T12:17:16.702Z,19.95
2022-12-04T12:22:37.552Z,18.92
2022-12-04T12:27:56.091Z,19.95
2022-12-04T12:33:09.293Z,18.85
2022-12-04T12:38:16.062Z,18.23
2022-12-04T12:43:30.156Z,17.88
2022-12-04T12:48:41.176Z,19.85
2022-12-04T12:53:48.912Z,17.30
2022-12-04T12:58:57.288Z,18.63
2022-12-04T13:04:08.219Z,17.83
2022-12-04T13:09:19.471Z,17.35
2022-12-04T13:14:23.580Z,17.52
2022-12-04T13:19:29.591Z,18.88
2022-12-04T13:24:57.626Z,17.80
2022-12-04T13:30:11.679Z,17.27
2022-12-04T13:35:23.188Z,17.50
2022-12-04T13:40:36.936Z,16.98
2022-12-04T13:45:41.968Z,16.80
2022-12-04T13:50:44.851Z,17.65
2022-12-04T13:55:57.174Z,17.58
2022-12-04T14:01:13.804Z,17.25
2022-12-04T14:06:29.580Z,18.37
2022-12-04T14:11:56.470Z,17.40
2022-12-04T14:17:01.529Z,17.08
2022-12-04T14:22:05.188Z,20.02
2022-12-04T14:27:34.345Z,18.30
2022-12-04T14:32:44.062Z,19.35
2022-12-04T14:37:57.804Z,19.20
2022-12-04T14:43:00.946Z,21.38
2022-12-04T14:48:18.931Z,20.65
2022-12-04T14:53:32.274Z,18.20
2022-12-04T14:58:38.903Z,20.40
2022-12-04T15:03:47.338Z,19.85
2022-12-04T15:13:53.909Z,20.90
2022-12-04T15:18:59.854Z,20.30
2022-12-04T15:24:08.581Z,21.38
2022-12-04T15:29:19.034Z,20.30
2022-12-04T15:34:37.237Z,20.05
2022-12-04T15:39:40.944Z,19.45
2022-12-04T15:44:52.624Z,19.75
2022-12-04T15:50:09.796Z,20.55
2022-12-04T15:55:18.296Z,18.90
2022-12-04T16:00:25.096Z,19.27
2022-12-04T16:05:37.495Z,19.95
2022-12-04T16:10:41.075Z,20.63
2022-12-04T16:15:45.136Z,20.45
2022-12-04T16:20:49.800Z,20.73
2022-12-04T16:25:53.828Z,19.73
2022-12-04T16:31:00.072Z,20.33
2022-12-04T16:36:04.600Z,19.75
2022-12-04T16:41:12.671Z,18.67
2022-12-04T16:46:17.563Z,19.65
2022-12-04T16:51:23.894Z,20.52
2022-12-04T16:56:26.841Z,21.23
2022-12-04T17:01:36.345Z,21.13
2022-12-04T17:06:40.922Z,20.35
2022-12-04T17:11:43.915Z,20.48
2022-12-04T17:16:47.431Z,20.88
2022-12-04T17:21:51.735Z,18.45
2022-12-04T17:26:54.910Z,18.95
2022-12-04T17:31:58.043Z,20.73
2022-12-04T17:37:02.711Z,20.75
2022-12-04T17:42:05.683Z,19.17
2022-12-04T17:47:08.522Z,18.85
2022-12-04T17:52:12.682Z,19.95
2022-12-04T17:57:16.847Z,18.88
2022-12-04T18:02:22.796Z,18.27
2022-12-04T18:07:27.123Z,17.23
2022-12-04T18:12:32.877Z,17.83
2022-12-04T18:17:38.113Z,19.25
2022-12-04T18:22:42.409Z,19.25
2022-12-04T18:27:45.228Z,18.60
2022-12-04T18:32:52.606Z,16.50
2022-12-04T18:38:15.223Z,18.20
2022-12-04T18:43:36.171Z,17.65
2022-12-04T18:48:56.745Z,15.80
2022-12-04T18:54:16.309Z,16.40
2022-12-04T18:59:30.709Z,16.35
2022-12-04T19:04:34.218Z,16.63
2022-12-04T19:15:17.509Z,15.95
2022-12-04T19:20:30.684Z,17.13
2022-12-04T19:25:37.739Z,17.30
2022-12-04T19:30:40.806Z,17.17
2022-12-04T19:35:44.159Z,18.17
2022-12-04T19:40:51.560Z,18.77
2022-12-04T19:45:57.359Z,19.30
2022-12-04T19:51:04.693Z,18.42
2022-12-04T19:56:12.617Z,19.63
2022-12-04T20:01:18.083Z,18.35
2022-12-04T20:06:24.539Z,18.13
2022-12-04T20:11:30.259Z,18.08
2022-12-04T20:16:34.917Z,17.20
2022-12-04T20:21:37.858Z,19.25
2022-12-04T20:26:51.314Z,17.50
2022-12-04T20:38:04.701Z,18.05
2022-12-04T20:43:24.127Z,17.35
2022-12-04T20:48:52.847Z,17.75
2022-12-04T20:54:17.874Z,16.42
2022-12-04T21:19:31.168Z,17.20
2022-12-04T21:24:38.850Z,16.02
2022-12-04T21:30:09.813Z,16.65
2022-12-04T21:35:15.671Z,17.37
2022-12-04T21:40:21.780Z,16.42
2022-12-04T21:45:36.046Z,17.05
2022-12-04T21:50:38.989Z,17.17
2022-12-04T21:55:47.986Z,17.30
2022-12-04T22:00:55.343Z,17.35
2022-12-04T22:06:01.177Z,16.70
2022-12-04T22:11:06.986Z,16.67
2022-12-04T22:16:17.297Z,16.88
2022-12-04T22:21:20.168Z,18.25
2022-12-04T22:26:23.102Z,18.98
2022-12-04T22:31:29.483Z,17.02
2022-12-04T22:36:33.609Z,17.25
2022-12-04T22:41:36.379Z,18.45
2022-12-04T22:46:40.491Z,18.65
2022-12-04T22:51:43.330Z,18.50
2022-12-04T22:56:46.196Z,18.77
2022-12-04T23:01:50.316Z,17.65
2022-12-04T23:06:53.351Z,18.20
2022-12-04T23:11:57.484Z,18.08
2022-12-04T23:17:01.766Z,18.02
2022-12-04T23:22:04.645Z,18.15
2022-12-04T23:27:07.337Z,17.25
2022-12-04T23:32:11.526Z,17.30
2022-12-04T23:37:14.291Z,17.20
2022-12-04T23:42:17.001Z,16.95
2022-12-04T23:47:21.182Z,17.63
2022-12-04T23:52:24.264Z,16.92
2022-12-04T23:57:29.657Z,16.95
